Carter, MT (59420)

12:01 AM MDT on September 20, 2014 (GMT -0600)
North Bench | Change Station
CLOSE
Current Station
Personal Weather Station
Location: Fort Benton, MT
Elevation: 3271 ft
Nearby Weather Stations

Elev 3271 ft 47.69 °N, 110.78 °W | Updated 12 seconds ago

Clear
Clear
54.5 °F
Feels Like 54.5 °F
N
6.8
Wind Variable Wind from West
Gusts 12.0 mph

Today
High -- | Low -- °F
--% Chance of Precip.
Yesterday
High -- | Low -- °F
Precip. -- in
7:08 AM 7:25 PM
Waning Crescent, 14% visible
Pressure 30.05 in
Visibility 10.0 miles
Clouds Clear
Dew Point 42 °F
Humidity 62%
Rainfall 0.00 in
Snow Depth Not available.
UV 0 out of 12
Pollen 6.90 out of 12
Air Quality Not available.
Flu Activity Not available.
METAR KGFA 200556Z AUTO 21009KT 10SM CLR 11/06 A3006 RMK AO2 SLP175 T01140060 10218 20113 402340113 52019

More Conditions Fewer Conditions

Pressure 30.05 in
Visibility 10.0 miles
Clouds Clear
Dew Point 42 °F
Humidity 62%
Rainfall 0.00 in
Snow Depth Not available.
UV 0 out of 12
Pollen 6.90 out of 12
Air Quality Not available.
Flu Activity Not available.
METAR KGFA 200556Z AUTO 21009KT 10SM CLR 11/06 A3006 RMK AO2 SLP175 T01140060 10218 20113 402340113 52019

More Conditions Fewer Conditions

10-Day Weather Forecast

Almanac

Astronomy

Sep. 20, 2014 Rise Set
Actual Time 7:08 AM MDT 7:25 PM MDT
Civil Twilight 6:37 AM MDT 7:56 PM MDT
Nautical Twilight 6:00 AM MDT 8:32 PM MDT
Astronomical Twilight 5:22 AM MDT 9:10 PM MDT
Moon 3:38 AM MDT 5:40 PM MDT
Length of Visible Light 13h 19m
Length of Day
12h 17m
Tomorrow will be 3m 26s shorter.
Waning Crescent, 14% of the Moon is Illuminated
Today
Waning Crescent
Sep 24
New
Oct 1
First Quarter
Oct 8
Full
Oct 15
Last Quarter

Today's Extremes

State Highs State Lows

Community

WunderPhotos

Upload Photos

1,754,777 photos uploaded!

WunderBlogs® & News

Nearby

Snow Depth

Station Depth Elevation
Black Pine 1 in 7210 ft
Bloody Dick 0 in 7550 ft
Crystal Lake 1 in 6050 ft
Copper Bottom 0 in 5200 ft
Burnt Mountain 0 in 5880 ft

Earthquake Activity

City Distance Mag. Time & Date
No recent earthquake activity has been reported nearby.
Minimum magnitude displayed is 2.5.

Coastal Water Temperatures

Place Temperature
No Stations Reporting

Nearby Weather Stations